Time;durP1;ratioP1;P1;durP2;ratioP2;P2;SDS_P1;SDS_P2;PMS_P1;PMS_P2;Temp;Humidity;BMP_temperature;BMP_pressure;BME280_temperature;BME280_humidity;BME280_pressure;Samples;Min_cycle;Max_cycle;Signal;HPM_P1;HPM_P2
2024/04/22 00:01:36;;;;;;;3.40;2.60;;;6.50;99.90;;;;;;5454910;26;19999;-87
2024/04/22 00:04:02;;;;;;;3.53;2.65;;;6.50;99.90;;;;;;5454811;26;20010;-88
2024/04/22 00:06:27;;;;;;;3.92;2.83;;;6.40;99.90;;;;;;5454204;26;20010;-87
2024/04/22 00:08:53;;;;;;;2.58;2.33;;;6.40;99.90;;;;;;5454478;26;20071;-88
2024/04/22 00:11:18;;;;;;;4.22;2.53;;;6.40;99.90;;;;;;5454434;26;19995;-87
2024/04/22 00:13:44;;;;;;;5.03;2.33;;;6.40;99.90;;;;;;5454149;26;20427;-87
2024/04/22 00:16:10;;;;;;;5.32;2.53;;;6.30;99.90;;;;;;5455065;26;20435;-88
2024/04/22 00:18:35;;;;;;;2.97;2.53;;;6.40;99.90;;;;;;5457275;26;20010;-87
2024/04/22 00:21:01;;;;;;;2.63;2.35;;;6.40;99.90;;;;;;5456733;26;20004;-88
2024/04/22 00:23:27;;;;;;;4.55;2.35;;;6.40;99.90;;;;;;5455008;26;20009;-88
2024/04/22 00:25:52;;;;;;;2.53;2.22;;;6.30;99.90;;;;;;5456733;26;19995;-88
2024/04/22 00:28:18;;;;;;;2.80;2.55;;;6.30;99.90;;;;;;5455918;26;20011;-87
2024/04/22 00:30:43;;;;;;;5.45;3.00;;;6.30;99.90;;;;;;5454651;26;20014;-87
2024/04/22 00:33:09;;;;;;;4.97;3.58;;;6.30;99.90;;;;;;5454575;26;20029;-88
2024/04/22 00:35:35;;;;;;;4.97;3.42;;;6.30;99.90;;;;;;5455532;26;20033;-88
2024/04/22 00:38:02;;;;;;;4.93;3.45;;;6.30;99.90;;;;;;5469169;26;20009;-87
2024/04/22 00:40:27;;;;;;;6.00;3.88;;;6.30;99.90;;;;;;5454458;26;20018;-87
2024/04/22 00:42:53;;;;;;;5.47;3.85;;;6.30;99.90;;;;;;5453937;26;20068;-87
2024/04/22 00:45:18;;;;;;;4.35;3.75;;;6.30;99.90;;;;;;5453893;26;19998;-88
2024/04/22 00:47:44;;;;;;;5.38;3.70;;;6.20;99.90;;;;;;5453310;26;20453;-87
2024/04/22 00:50:11;;;;;;;7.53;3.75;;;6.20;99.90;;;;;;5453903;26;19998;-88
2024/04/22 00:52:38;;;;;;;4.00;3.58;;;6.20;99.90;;;;;;5453927;26;20010;-87
2024/04/22 00:55:04;;;;;;;5.07;3.28;;;6.20;99.90;;;;;;5453151;26;20006;-87
2024/04/22 00:57:30;;;;;;;5.25;3.97;;;6.20;99.90;;;;;;5453878;26;20462;-87
2024/04/22 00:59:56;;;;;;;3.85;3.55;;;6.10;99.90;;;;;;5453781;26;20067;-88
2024/04/22 01:02:22;;;;;;;4.18;3.45;;;6.20;99.90;;;;;;5453032;26;19999;-88
2024/04/22 01:04:48;;;;;;;4.60;3.72;;;6.20;99.90;;;;;;5453284;26;19999;-88
2024/04/22 01:07:14;;;;;;;3.92;3.10;;;6.20;99.90;;;;;;5453700;26;19999;-87
2024/04/22 01:09:39;;;;;;;4.95;3.22;;;6.10;99.90;;;;;;5452882;26;20338;-87
2024/04/22 01:12:05;;;;;;;4.18;3.75;;;6.20;99.90;;;;;;5453595;26;19999;-88
2024/04/22 01:14:31;;;;;;;5.32;4.10;;;6.20;99.90;;;;;;5453434;26;20006;-88
2024/04/22 01:16:56;;;;;;;4.57;3.55;;;6.20;99.90;;;;;;5452809;26;19998;-88
2024/04/22 01:19:22;;;;;;;6.07;3.75;;;6.20;99.90;;;;;;5453001;26;20070;-88
2024/04/22 01:21:51;;;;;;;4.82;3.97;;;6.10;99.90;;;;;;5453450;26;20075;-87
2024/04/22 01:24:18;;;;;;;5.32;4.68;;;6.10;99.90;;;;;;5452588;26;20009;-88
2024/04/22 01:26:48;;;;;;;6.15;3.83;;;6.10;99.90;;;;;;5453303;26;19999;-88
2024/04/22 01:29:14;;;;;;;8.80;4.05;;;6.10;99.90;;;;;;5452355;26;19999;-88
2024/04/22 01:31:40;;;;;;;8.88;4.47;;;6.10;99.90;;;;;;5453203;26;20003;-87
2024/04/22 01:34:05;;;;;;;5.22;3.97;;;6.10;99.90;;;;;;5454220;26;20010;-88
2024/04/22 01:36:31;;;;;;;8.45;4.03;;;6.00;99.90;;;;;;5455857;26;20006;-87
2024/04/22 01:38:57;;;;;;;6.43;4.45;;;6.00;99.90;;;;;;5456166;26;20022;-88
2024/04/22 01:41:23;;;;;;;4.78;3.78;;;6.00;99.90;;;;;;5456513;26;19999;-87
2024/04/22 01:43:48;;;;;;;5.05;4.18;;;5.90;99.90;;;;;;5455596;26;20334;-88
2024/04/22 01:46:14;;;;;;;5.30;4.65;;;5.90;99.90;;;;;;5456686;26;20010;-87
2024/04/22 01:48:40;;;;;;;6.38;5.32;;;5.80;99.90;;;;;;5456441;26;19999;-87
2024/04/22 01:51:05;;;;;;;9.13;4.43;;;5.90;99.90;;;;;;5455848;26;20009;-87
2024/04/22 01:53:31;;;;;;;5.35;4.47;;;5.80;99.90;;;;;;5456678;26;20011;-87
2024/04/22 01:55:57;;;;;;;6.55;4.90;;;5.90;99.90;;;;;;5471555;26;20319;-87
2024/04/22 01:58:23;;;;;;;5.60;4.50;;;5.90;99.90;;;;;;5456916;26;20006;-87
2024/04/22 02:00:48;;;;;;;9.18;5.22;;;5.90;99.90;;;;;;5456414;26;20003;-87
2024/04/22 02:03:14;;;;;;;5.78;4.15;;;6.00;99.90;;;;;;5456298;26;20006;-88
2024/04/22 02:05:43;;;;;;;11.60;4.55;;;5.90;99.90;;;;;;5455115;26;19998;-87
2024/04/22 02:08:08;;;;;;;5.63;4.47;;;5.90;99.90;;;;;;5456383;26;20075;-87
2024/04/22 02:10:34;;;;;;;5.07;4.57;;;6.00;99.90;;;;;;5456257;26;20010;-87
2024/04/22 02:13:03;;;;;;;6.47;4.47;;;6.00;99.90;;;;;;5455583;26;19999;-87
2024/04/22 02:15:29;;;;;;;8.68;4.50;;;6.00;99.90;;;;;;5456041;26;20357;-88
2024/04/22 02:17:55;;;;;;;5.07;3.92;;;6.00;99.90;;;;;;5456143;26;20009;-87
2024/04/22 02:20:21;;;;;;;7.75;4.30;;;6.20;99.90;;;;;;5455568;26;19995;-87
2024/04/22 02:22:46;;;;;;;9.05;4.57;;;6.00;99.90;;;;;;5456099;26;20013;-88
2024/04/22 02:25:12;;;;;;;5.32;4.03;;;6.00;99.90;;;;;;5455707;26;20082;-87
2024/04/22 02:27:37;;;;;;;7.30;4.68;;;6.00;99.90;;;;;;5455265;26;19999;-87
2024/04/22 02:30:03;;;;;;;5.90;4.55;;;6.00;99.90;;;;;;5455869;26;20014;-86
2024/04/22 02:32:29;;;;;;;12.38;5.45;;;6.00;99.90;;;;;;5455371;26;20003;-87
2024/04/22 02:34:54;;;;;;;8.60;4.93;;;5.90;99.90;;;;;;5455333;26;20010;-88
2024/04/22 02:37:20;;;;;;;5.28;4.10;;;5.90;99.90;;;;;;5455891;26;19999;-87
2024/04/22 02:39:45;;;;;;;5.00;4.53;;;5.90;99.90;;;;;;5455076;26;20330;-88
2024/04/22 02:42:11;;;;;;;8.63;4.63;;;5.80;99.90;;;;;;5455745;26;20325;-88
2024/04/22 02:44:36;;;;;;;5.57;4.80;;;5.90;99.90;;;;;;5455700;26;20319;-88
2024/04/22 02:47:02;;;;;;;5.47;4.85;;;5.90;99.90;;;;;;5453813;26;20028;-88
2024/04/22 02:49:30;;;;;;;4.47;4.07;;;5.80;99.90;;;;;;5455858;26;19999;-88
2024/04/22 02:51:56;;;;;;;6.07;3.80;;;5.90;99.90;;;;;;5455979;26;20003;-88
2024/04/22 02:54:27;;;;;;;7.50;4.63;;;5.80;99.90;;;;;;5455014;26;20449;-87
2024/04/22 02:56:56;;;;;;;7.20;4.65;;;5.80;99.90;;;;;;5455585;26;20072;-88
2024/04/22 02:59:21;;;;;;;10.43;4.05;;;5.80;99.90;;;;;;5455588;26;19999;-88
2024/04/22 03:01:49;;;;;;;4.95;4.45;;;5.80;99.90;;;;;;5454919;26;20013;-88
2024/04/22 03:04:15;;;;;;;5.97;4.22;;;5.70;99.90;;;;;;5455456;26;19998;-87
2024/04/22 03:06:41;;;;;;;4.50;3.65;;;5.70;99.90;;;;;;5455706;26;20457;-88
2024/04/22 03:09:07;;;;;;;4.25;3.83;;;5.70;99.90;;;;;;5455317;26;20015;-88
2024/04/22 03:11:32;;;;;;;4.78;4.05;;;5.70;99.90;;;;;;5455722;26;20014;-87
2024/04/22 03:13:58;;;;;;;4.15;3.75;;;5.60;99.90;;;;;;5469973;26;20062;-87
2024/04/22 03:16:24;;;;;;;6.10;4.63;;;5.60;99.90;;;;;;5456401;26;20002;-87
2024/04/22 03:18:49;;;;;;;4.88;4.15;;;5.60;99.90;;;;;;5455867;26;20359;-87
2024/04/22 03:21:15;;;;;;;5.13;3.72;;;5.60;99.90;;;;;;5457414;26;20003;-87
2024/04/22 03:23:41;;;;;;;6.68;3.97;;;5.60;99.90;;;;;;5456989;26;19998;-87
2024/04/22 03:26:06;;;;;;;6.88;3.90;;;5.60;99.90;;;;;;5457554;26;19999;-88
2024/04/22 03:28:35;;;;;;;7.40;4.00;;;5.60;99.90;;;;;;5456881;26;20049;-87
2024/04/22 03:31:00;;;;;;;6.00;3.63;;;5.60;99.90;;;;;;5454770;26;20003;-88
2024/04/22 03:33:26;;;;;;;5.10;3.70;;;5.70;99.90;;;;;;5455033;26;20005;-88
2024/04/22 03:35:51;;;;;;;4.70;3.50;;;5.70;99.90;;;;;;5454619;26;20003;-87
2024/04/22 03:38:18;;;;;;;5.80;4.05;;;5.70;99.90;;;;;;5454951;26;19998;-88
2024/04/22 03:40:43;;;;;;;3.95;3.35;;;5.80;99.90;;;;;;5455299;26;19999;-87
2024/04/22 03:43:11;;;;;;;5.95;3.88;;;5.80;99.90;;;;;;5454699;26;20030;-88
2024/04/22 03:45:37;;;;;;;6.13;3.30;;;5.80;99.90;;;;;;5455119;26;20006;-88
2024/04/22 03:50:47;;;;;;;4.53;3.50;;;6.00;99.90;;;;;;5454798;26;20421;-88
2024/04/22 03:53:12;;;;;;;6.00;3.00;;;6.00;99.90;;;;;;5454727;26;20010;-87
2024/04/22 03:55:38;;;;;;;4.97;4.07;;;6.00;99.90;;;;;;5454929;26;20045;-88
2024/04/22 03:58:04;;;;;;;4.28;3.88;;;6.00;99.90;;;;;;5453936;26;20003;-88
2024/04/22 04:00:29;;;;;;;3.85;3.47;;;5.90;99.90;;;;;;5454734;26;19995;-88
2024/04/22 04:02:55;;;;;;;4.13;3.65;;;5.90;99.90;;;;;;5454510;26;20007;-88
2024/04/22 04:05:20;;;;;;;7.07;4.13;;;5.90;99.90;;;;;;5454012;26;20002;-88
2024/04/22 04:07:46;;;;;;;6.57;3.58;;;5.90;99.90;;;;;;5454533;26;20013;-88
2024/04/22 04:10:11;;;;;;;4.75;3.33;;;5.90;99.90;;;;;;5454728;26;19995;-87
2024/04/22 04:12:37;;;;;;;6.78;3.55;;;5.90;99.90;;;;;;5453615;26;20388;-87
2024/04/22 04:15:02;;;;;;;4.07;3.20;;;5.90;99.90;;;;;;5454446;26;19999;-88
2024/04/22 04:17:28;;;;;;;6.25;3.40;;;5.90;99.90;;;;;;5454296;26;19999;-87
2024/04/22 04:19:53;;;;;;;3.13;2.72;;;6.00;99.90;;;;;;5453517;26;19998;-88
2024/04/22 04:22:19;;;;;;;3.67;3.22;;;6.10;99.90;;;;;;5454363;26;20018;-88
2024/04/22 04:24:45;;;;;;;6.55;2.78;;;6.00;99.90;;;;;;5454512;26;19995;-87
2024/04/22 04:27:10;;;;;;;5.68;2.58;;;6.00;99.90;;;;;;5453492;26;20003;-88
2024/04/22 04:29:36;;;;;;;5.72;3.03;;;6.00;99.90;;;;;;5454287;26;19995;-87
2024/04/22 04:32:01;;;;;;;3.80;2.85;;;6.00;99.90;;;;;;5468800;26;19998;-87
2024/04/22 04:34:27;;;;;;;5.90;2.58;;;6.10;99.90;;;;;;5455813;26;19998;-87
2024/04/22 04:36:52;;;;;;;3.17;2.13;;;6.10;99.90;;;;;;5454190;26;20341;-87
2024/04/22 04:39:18;;;;;;;4.80;2.60;;;6.10;99.90;;;;;;5453974;26;19995;-88
2024/04/22 04:41:43;;;;;;;4.78;2.55;;;6.00;99.90;;;;;;5455379;26;20010;-87
2024/04/22 04:44:09;;;;;;;4.10;2.42;;;6.10;99.90;;;;;;5455176;26;20006;-88
2024/04/22 04:46:35;;;;;;;9.35;2.38;;;6.10;99.90;;;;;;5454301;26;20330;-87
2024/04/22 04:49:00;;;;;;;8.45;2.15;;;6.10;99.90;;;;;;5454132;26;20458;-88
2024/04/22 04:51:26;;;;;;;3.72;2.03;;;6.10;99.90;;;;;;5453886;26;20017;-88
2024/04/22 04:53:51;;;;;;;5.03;2.33;;;6.20;99.90;;;;;;5453412;26;19999;-88
2024/04/22 04:56:17;;;;;;;11.40;2.38;;;6.10;99.90;;;;;;5453663;26;19999;-88
2024/04/22 04:58:43;;;;;;;5.20;2.85;;;6.10;99.90;;;;;;5453526;26;19995;-87
2024/04/22 05:01:08;;;;;;;3.67;2.22;;;6.10;99.90;;;;;;5453190;26;20018;-87
2024/04/22 05:03:34;;;;;;;5.43;2.17;;;6.10;99.90;;;;;;5453778;26;19995;-88
2024/04/22 05:06:00;;;;;;;3.85;2.13;;;6.10;99.90;;;;;;5453120;26;20458;-88
2024/04/22 05:08:26;;;;;;;6.97;2.20;;;6.10;99.90;;;;;;5457107;26;19998;-88
2024/04/22 05:10:51;;;;;;;6.35;3.03;;;6.20;99.90;;;;;;5456899;26;20013;-89
2024/04/22 05:13:17;;;;;;;7.53;2.45;;;6.20;99.90;;;;;;5457255;26;20449;-88
2024/04/22 05:15:42;;;;;;;7.65;2.58;;;6.10;99.90;;;;;;5456577;26;20338;-88
2024/04/22 05:18:08;;;;;;;3.00;2.35;;;6.20;99.90;;;;;;5456997;26;20341;-87
2024/04/22 05:20:33;;;;;;;4.15;2.25;;;6.20;99.90;;;;;;5456766;26;20076;-88
2024/04/22 05:22:59;;;;;;;6.32;2.28;;;6.20;99.90;;;;;;5456209;26;20010;-88
2024/04/22 05:25:24;;;;;;;6.30;2.33;;;6.20;99.90;;;;;;5456694;26;19999;-87
2024/04/22 05:27:50;;;;;;;4.03;2.17;;;6.20;99.90;;;;;;5456360;26;19995;-88
2024/04/22 05:30:16;;;;;;;5.93;2.20;;;6.30;99.90;;;;;;5456224;26;20514;-88
2024/04/22 05:32:42;;;;;;;7.47;2.35;;;6.30;99.90;;;;;;5456788;26;20453;-88
2024/04/22 05:37:51;;;;;;;6.40;2.47;;;6.30;99.90;;;;;;5457049;26;20453;-89
2024/04/22 05:40:17;;;;;;;8.27;2.70;;;6.40;99.90;;;;;;5456184;26;20003;-89
2024/04/22 05:42:43;;;;;;;6.32;2.63;;;6.30;99.90;;;;;;5456221;26;20483;-87
2024/04/22 05:45:08;;;;;;;5.95;2.85;;;6.30;99.90;;;;;;5456901;26;19999;-88
2024/04/22 05:47:34;;;;;;;6.28;2.67;;;6.30;99.90;;;;;;5456825;26;20350;-88
2024/04/22 05:49:59;;;;;;;6.78;2.50;;;6.40;99.90;;;;;;5469786;26;20079;-88
2024/04/22 05:52:27;;;;;;;7.63;2.58;;;6.40;99.90;;;;;;5456924;26;20005;-88
2024/04/22 05:54:52;;;;;;;4.10;2.38;;;6.40;99.90;;;;;;5456689;26;20002;-89
2024/04/22 05:57:19;;;;;;;4.95;2.20;;;6.50;99.90;;;;;;5456271;26;20006;-89
2024/04/22 05:59:44;;;;;;;6.47;2.85;;;6.50;99.90;;;;;;5456775;26;20001;-89
2024/04/22 06:02:10;;;;;;;4.70;2.78;;;6.70;99.90;;;;;;5456582;26;19994;-89
2024/04/22 06:04:35;;;;;;;11.50;2.63;;;6.50;99.90;;;;;;5455931;26;20006;-88
2024/04/22 06:07:01;;;;;;;5.45;3.00;;;6.50;99.90;;;;;;5456426;26;20013;-89
2024/04/22 06:09:27;;;;;;;6.05;2.50;;;6.50;99.90;;;;;;5456346;26;20408;-89
2024/04/22 06:11:52;;;;;;;8.57;3.17;;;6.50;99.90;;;;;;5456096;26;20443;-88
2024/04/22 06:14:18;;;;;;;10.05;2.75;;;6.60;99.90;;;;;;5456716;26;20007;-88
2024/04/22 06:16:44;;;;;;;10.32;3.10;;;6.60;99.90;;;;;;5456994;26;20018;-89
2024/04/22 06:19:10;;;;;;;9.20;2.83;;;6.60;99.90;;;;;;5456476;26;20003;-89
2024/04/22 06:21:35;;;;;;;9.40;2.95;;;6.60;99.90;;;;;;5462191;26;20022;-89
2024/04/22 06:24:01;;;;;;;7.95;2.70;;;6.60;99.90;;;;;;5462598;26;20518;-89
2024/04/22 06:26:27;;;;;;;11.38;2.90;;;6.70;99.90;;;;;;5462441;26;19999;-88
2024/04/22 06:28:53;;;;;;;11.02;3.22;;;6.70;99.90;;;;;;5460497;26;20011;-89
2024/04/22 06:31:19;;;;;;;11.05;3.38;;;6.80;99.90;;;;;;5458530;26;19999;-89
2024/04/22 06:33:44;;;;;;;14.02;3.90;;;6.80;99.90;;;;;;5456266;26;20014;-89
2024/04/22 06:36:11;;;;;;;7.78;3.47;;;6.90;99.90;;;;;;5456084;26;20461;-89
2024/04/22 06:38:37;;;;;;;9.30;3.47;;;6.90;99.90;;;;;;5455685;26;20011;-89
2024/04/22 06:41:03;;;;;;;5.80;2.95;;;6.90;99.90;;;;;;5456322;26;20462;-89
2024/04/22 06:43:28;;;;;;;8.60;3.38;;;6.90;99.90;;;;;;5457351;26;20014;-89
2024/04/22 06:45:54;;;;;;;8.60;3.83;;;7.00;99.90;;;;;;5455729;26;20075;-88
2024/04/22 06:48:20;;;;;;;8.70;3.25;;;7.00;99.90;;;;;;5463046;26;20018;-88
2024/04/22 06:50:47;;;;;;;7.32;3.17;;;7.00;99.90;;;;;;5466553;26;19999;-88
2024/04/22 06:53:12;;;;;;;7.75;3.70;;;7.00;99.90;;;;;;5466177;26;20017;-87
2024/04/22 06:55:38;;;;;;;5.22;3.53;;;7.10;99.90;;;;;;5467901;26;19999;-88
2024/04/22 06:58:03;;;;;;;7.85;2.70;;;7.10;99.90;;;;;;5466353;26;20057;-87
2024/04/22 07:00:29;;;;;;;7.15;2.80;;;7.20;99.90;;;;;;5460585;26;19999;-88
2024/04/22 07:02:57;;;;;;;8.20;3.13;;;7.20;99.90;;;;;;5455855;26;20003;-89
2024/04/22 07:05:23;;;;;;;7.10;2.53;;;7.30;99.90;;;;;;5455664;26;20038;-88
2024/04/22 07:07:49;;;;;;;7.88;2.72;;;7.30;99.90;;;;;;5470275;26;20014;-89
2024/04/22 07:10:15;;;;;;;7.40;2.85;;;7.30;99.90;;;;;;5458528;26;20474;-88
2024/04/22 07:12:41;;;;;;;7.05;2.83;;;7.30;99.90;;;;;;5455187;26;20039;-88
2024/04/22 07:15:07;;;;;;;7.78;2.53;;;7.30;99.90;;;;;;5455946;26;20418;-89
2024/04/22 07:17:33;;;;;;;7.70;2.60;;;7.30;99.90;;;;;;5455712;26;19999;-88
2024/04/22 07:19:58;;;;;;;6.60;2.97;;;7.30;99.90;;;;;;5455274;26;20075;-88
2024/04/22 07:22:27;;;;;;;4.65;2.67;;;7.40;99.90;;;;;;5454774;26;20009;-88
2024/04/22 07:24:54;;;;;;;5.88;2.28;;;7.40;99.90;;;;;;5455346;26;20039;-90
2024/04/22 07:27:21;;;;;;;12.35;2.70;;;7.40;99.90;;;;;;5455743;26;20044;-89
2024/04/22 07:29:47;;;;;;;3.97;1.83;;;7.40;99.90;;;;;;5454866;26;20011;-89
2024/04/22 07:32:13;;;;;;;8.65;2.70;;;7.50;99.90;;;;;;5454672;26;20067;-89
2024/04/22 07:34:39;;;;;;;12.93;2.40;;;7.50;99.90;;;;;;5456119;26;20014;-88
2024/04/22 07:37:10;;;;;;;5.00;2.42;;;7.50;99.90;;;;;;5455115;26;19995;-90
2024/04/22 07:39:42;;;;;;;4.93;2.30;;;7.50;99.90;;;;;;5455377;26;20011;-88
2024/04/22 07:42:07;;;;;;;7.40;2.60;;;7.50;99.90;;;;;;5455056;26;19999;-89
2024/04/22 07:44:33;;;;;;;7.47;2.10;;;7.50;99.90;;;;;;5455637;26;19998;-89
2024/04/22 07:46:58;;;;;;;6.57;2.05;;;7.60;99.90;;;;;;5455440;26;20340;-89
2024/04/22 07:49:24;;;;;;;5.95;2.45;;;7.70;99.90;;;;;;5454528;26;20322;-89
2024/04/22 07:51:50;;;;;;;5.47;1.92;;;7.70;99.90;;;;;;5455254;26;20003;-89
2024/04/22 07:54:15;;;;;;;8.77;2.88;;;7.80;99.90;;;;;;5455376;26;20006;-88
2024/04/22 07:56:41;;;;;;;10.50;2.15;;;7.80;99.90;;;;;;5454952;26;20254;-88
2024/04/22 07:59:07;;;;;;;7.63;2.10;;;7.90;99.90;;;;;;5455200;26;20072;-89
2024/04/22 08:01:33;;;;;;;5.15;2.03;;;7.90;99.90;;;;;;5454986;26;19999;-89
2024/04/22 08:03:59;;;;;;;10.07;2.47;;;8.00;99.90;;;;;;5454420;26;20035;-90
2024/04/22 08:06:32;;;;;;;9.23;2.20;;;8.00;99.90;;;;;;5454405;26;20063;-88
2024/04/22 08:08:57;;;;;;;11.23;2.40;;;8.10;99.90;;;;;;5455077;26;20442;-89
2024/04/22 08:11:23;;;;;;;4.75;1.60;;;8.10;99.90;;;;;;5454635;26;20003;-89
2024/04/22 08:13:49;;;;;;;10.45;2.15;;;8.20;99.90;;;;;;5455552;26;20009;-89
2024/04/22 08:16:14;;;;;;;8.90;2.20;;;8.20;99.90;;;;;;5455041;26;20052;-88
2024/04/22 08:18:40;;;;;;;4.72;1.88;;;9.40;99.90;;;;;;5454737;26;19995;-89
2024/04/22 08:21:07;;;;;;;8.25;2.08;;;8.30;99.90;;;;;;5455163;26;20021;-88
2024/04/22 08:23:35;;;;;;;4.28;1.55;;;8.30;99.90;;;;;;5455359;26;20067;-89
2024/04/22 08:26:00;;;;;;;9.35;1.75;;;8.30;99.90;;;;;;5469854;26;20002;-90
2024/04/22 08:28:26;;;;;;;4.57;2.00;;;8.40;99.90;;;;;;5457805;26;19998;-89
2024/04/22 08:31:02;;;;;;;4.40;1.65;;;8.50;99.90;;;;;;5455489;26;19999;-89
2024/04/22 08:33:28;;;;;;;10.65;1.98;;;8.50;99.90;;;;;;5454821;26;19999;-90
2024/04/22 08:35:53;;;;;;;8.38;2.33;;;8.50;99.90;;;;;;5455306;26;20013;-90
2024/04/22 08:38:19;;;;;;;3.00;1.50;;;8.50;99.90;;;;;;5454365;26;20003;-89
2024/04/22 08:40:45;;;;;;;7.30;1.40;;;8.50;99.90;;;;;;5454779;26;20009;-89
2024/04/22 08:43:13;;;;;;;9.00;1.65;;;8.60;99.90;;;;;;5454316;26;20040;-90
2024/04/22 08:45:43;;;;;;;5.65;1.60;;;8.60;99.90;;;;;;5458227;26;19999;-90
2024/04/22 08:48:09;;;;;;;4.67;1.57;;;8.60;99.90;;;;;;5460229;26;19998;-89
2024/04/22 08:50:37;;;;;;;13.77;2.20;;;8.70;99.90;;;;;;5458148;26;20732;-89
2024/04/22 08:53:11;;;;;;;5.03;1.73;;;8.70;99.90;;;;;;5453980;26;20311;-89
2024/04/22 08:55:37;;;;;;;4.30;1.83;;;8.70;99.90;;;;;;5454600;26;20452;-90
2024/04/22 08:58:04;;;;;;;5.22;2.38;;;8.80;99.90;;;;;;5454664;26;19999;-89
2024/04/22 09:00:30;;;;;;;7.35;1.80;;;8.90;99.90;;;;;;5454008;26;19994;-90
2024/04/22 09:02:55;;;;;;;5.35;2.10;;;9.00;99.90;;;;;;5454358;26;20076;-90
2024/04/22 09:05:23;;;;;;;8.10;1.90;;;9.10;99.90;;;;;;5454114;26;20003;-89
2024/04/22 09:07:52;;;;;;;5.30;2.17;;;9.10;99.90;;;;;;5453654;26;20482;-89
2024/04/22 09:10:19;;;;;;;10.18;2.15;;;9.20;99.90;;;;;;5454843;26;20454;-90
2024/04/22 09:12:56;;;;;;;6.13;2.10;;;9.20;99.90;;;;;;5454284;26;20481;-88
2024/04/22 09:15:21;;;;;;;3.92;2.30;;;9.20;99.90;;;;;;5454106;26;20039;-89
2024/04/22 09:17:47;;;;;;;9.88;2.42;;;9.20;99.90;;;;;;5454634;26;20342;-89
2024/04/22 09:20:24;;;;;;;8.48;2.60;;;9.20;99.90;;;;;;5458519;26;20010;-88
2024/04/22 09:22:49;;;;;;;8.15;2.88;;;9.20;99.90;;;;;;5460649;26;20327;-88
2024/04/22 09:25:16;;;;;;;6.97;3.10;;;9.30;99.90;;;;;;5458065;26;19995;-90
2024/04/22 09:27:49;;;;;;;4.78;2.92;;;9.20;99.90;;;;;;5458029;26;20461;-89
2024/04/22 09:30:23;;;;;;;10.73;3.63;;;9.20;99.90;;;;;;5453750;26;19998;-89
2024/04/22 09:32:57;;;;;;;5.97;3.08;;;9.20;99.90;;;;;;5453720;26;20101;-89
2024/04/22 09:35:22;;;;;;;6.78;2.78;;;9.20;99.90;;;;;;5453364;26;20003;-89
2024/04/22 09:37:50;;;;;;;13.48;3.65;;;9.10;99.90;;;;;;5454020;26;19999;-89
2024/04/22 09:40:17;;;;;;;8.40;2.90;;;9.10;99.90;;;;;;5453298;26;19999;-89
2024/04/22 09:42:46;;;;;;;6.55;2.67;;;9.00;99.90;;;;;;5464126;26;20005;-88
2024/04/22 09:45:14;;;;;;;7.40;2.90;;;9.00;99.90;;;;;;5455942;26;19998;-89
2024/04/22 09:47:41;;;;;;;6.05;1.85;;;8.90;99.90;;;;;;5453567;26;20027;-89
2024/04/22 09:50:10;;;;;;;4.78;1.92;;;8.90;99.90;;;;;;5452785;26;20022;-90
2024/04/22 09:52:37;;;;;;;5.50;1.70;;;8.90;99.90;;;;;;5453171;26;20392;-88
2024/04/22 09:55:04;;;;;;;6.45;1.55;;;9.00;99.90;;;;;;5454063;26;20070;-89
2024/04/22 09:57:33;;;;;;;3.22;1.50;;;9.00;99.90;;;;;;5456353;26;20027;-88
2024/04/22 09:59:59;;;;;;;1.80;1.65;;;9.00;99.90;;;;;;5456625;26;20003;-89
2024/04/22 10:02:26;;;;;;;4.35;1.55;;;9.00;99.90;;;;;;5456966;26;20002;-90
2024/04/22 10:04:52;;;;;;;1.88;1.35;;;8.90;99.90;;;;;;5456337;26;19999;-89
2024/04/22 10:07:19;;;;;;;4.88;1.70;;;8.90;99.90;;;;;;5457341;26;20010;-90
2024/04/22 10:09:52;;;;;;;9.63;1.60;;;9.30;99.90;;;;;;5456344;26;19999;-89
2024/04/22 10:12:25;;;;;;;4.78;1.95;;;9.00;99.90;;;;;;5456956;26;20027;-90
2024/04/22 10:15:02;;;;;;;3.10;1.63;;;9.10;99.90;;;;;;5457041;26;20006;-89
2024/04/22 10:17:27;;;;;;;3.45;1.70;;;9.20;99.90;;;;;;5455970;26;20011;-89
2024/04/22 10:19:53;;;;;;;3.78;1.83;;;9.20;99.90;;;;;;5456381;26;20093;-88
2024/04/22 10:22:18;;;;;;;2.72;1.60;;;9.30;99.90;;;;;;5457409;26;20477;-89
2024/04/22 10:24:46;;;;;;;6.78;1.77;;;9.30;99.90;;;;;;5455981;26;20010;-89
2024/04/22 10:27:13;;;;;;;4.78;1.80;;;9.30;99.90;;;;;;5456392;26;20018;-89
2024/04/22 10:29:41;;;;;;;2.85;1.45;;;9.30;99.90;;;;;;5456412;26;20013;-88
2024/04/22 10:32:06;;;;;;;6.43;1.73;;;9.30;99.90;;;;;;5455872;26;20017;-89
2024/04/22 10:34:32;;;;;;;5.90;1.85;;;9.40;99.90;;;;;;5455768;26;20010;-88
2024/04/22 10:36:58;;;;;;;2.78;1.85;;;9.50;99.90;;;;;;5456406;26;20003;-89
2024/04/22 10:39:23;;;;;;;2.05;1.40;;;9.50;99.90;;;;;;5456125;26;20002;-89
2024/04/22 10:41:49;;;;;;;2.90;1.63;;;10.30;99.90;;;;;;5455880;26;20438;-89
2024/04/22 10:44:14;;;;;;;4.13;1.52;;;9.50;99.90;;;;;;5456455;26;20009;-89
2024/04/22 10:46:40;;;;;;;2.88;1.45;;;9.60;99.90;;;;;;5455264;26;20003;-89
2024/04/22 10:49:06;;;;;;;2.13;1.65;;;9.60;99.90;;;;;;5456451;26;20006;-90
2024/04/22 10:51:32;;;;;;;3.70;1.70;;;9.70;99.90;;;;;;5455834;26;20445;-90
2024/04/22 10:53:58;;;;;;;7.78;2.15;;;10.50;99.90;;;;;;5455500;26;20014;-89
2024/04/22 10:56:24;;;;;;;7.57;2.13;;;9.80;99.90;;;;;;5456231;26;20026;-89
2024/04/22 10:58:50;;;;;;;7.38;1.92;;;9.80;99.90;;;;;;5455580;26;20326;-90
2024/04/22 11:01:16;;;;;;;4.63;1.92;;;9.80;99.90;;;;;;5468706;26;20346;-90
2024/04/22 11:03:42;;;;;;;2.33;1.73;;;9.90;99.90;;;;;;5456531;26;20011;-88
2024/04/22 11:06:12;;;;;;;5.15;1.70;;;10.30;99.90;;;;;;5454435;26;19999;-89
2024/04/22 11:08:40;;;;;;;2.72;1.88;;;9.90;99.90;;;;;;5455568;26;20034;-89
2024/04/22 11:11:07;;;;;;;2.22;1.92;;;9.90;99.90;;;;;;5455963;26;20014;-89
2024/04/22 11:13:34;;;;;;;4.15;1.85;;;9.80;99.90;;;;;;5454999;26;20003;-89
2024/04/22 11:16:09;;;;;;;3.97;1.92;;;9.80;99.90;;;;;;5455957;26;20002;-90
2024/04/22 11:18:35;;;;;;;2.42;1.58;;;9.80;99.90;;;;;;5456145;26;20007;-89
2024/04/22 11:21:01;;;;;;;5.75;1.60;;;9.90;99.90;;;;;;5454685;26;20075;-91
2024/04/22 11:23:27;;;;;;;2.05;1.80;;;10.20;99.90;;;;;;5455815;26;20007;-90
2024/04/22 11:25:53;;;;;;;4.53;1.90;;;10.00;99.90;;;;;;5456909;26;20338;-90
2024/04/22 11:28:19;;;;;;;2.20;2.00;;;10.00;99.90;;;;;;5454935;26;19995;-90
2024/04/22 11:30:46;;;;;;;5.25;2.30;;;10.00;99.90;;;;;;5455344;26;20013;-88
2024/04/22 11:33:12;;;;;;;2.33;1.90;;;10.20;99.90;;;;;;5455428;26;20006;-89
2024/04/22 11:35:38;;;;;;;7.05;1.83;;;9.90;99.90;;;;;;5454801;26;20458;-87
2024/04/22 11:38:17;;;;;;;3.78;2.58;;;10.20;99.90;;;;;;5455934;26;19995;-87
2024/04/22 11:40:46;;;;;;;6.78;2.80;;;10.10;99.90;;;;;;5456272;26;19994;-87
2024/04/22 11:43:12;;;;;;;5.30;3.15;;;9.80;99.90;;;;;;5455460;26;20126;-88
2024/04/22 11:45:37;;;;;;;5.63;3.30;;;9.70;99.90;;;;;;5455379;26;20066;-87
2024/04/22 11:48:03;;;;;;;2.47;2.17;;;9.80;99.90;;;;;;5455070;26;20079;-89
2024/04/22 11:50:29;;;;;;;3.05;2.10;;;9.90;99.90;;;;;;5454940;26;20003;-88
2024/04/22 11:52:54;;;;;;;4.38;2.15;;;9.90;99.90;;;;;;5455619;26;20356;-89
2024/04/22 11:55:20;;;;;;;8.27;2.40;;;9.80;99.90;;;;;;5456248;26;19999;-89
2024/04/22 11:57:46;;;;;;;2.72;2.13;;;10.00;99.90;;;;;;5457813;26;20007;-88
2024/04/22 12:00:12;;;;;;;2.10;1.65;;;9.80;99.90;;;;;;5469262;26;19994;-89
2024/04/22 12:02:38;;;;;;;2.95;1.90;;;9.80;99.90;;;;;;5457760;26;20005;-89
2024/04/22 12:05:09;;;;;;;2.95;1.60;;;9.90;99.90;;;;;;5456132;26;20011;-89
2024/04/22 12:07:36;;;;;;;5.63;2.38;;;9.80;99.90;;;;;;5456105;26;20307;-89
2024/04/22 12:10:02;;;;;;;4.28;2.03;;;9.90;99.90;;;;;;5455120;26;19998;-89
2024/04/22 12:12:28;;;;;;;4.97;2.70;;;9.90;99.90;;;;;;5455721;26;20466;-90
2024/04/22 12:14:54;;;;;;;3.45;2.55;;;10.00;99.90;;;;;;5455739;26;20079;-90
2024/04/22 12:17:21;;;;;;;7.68;2.22;;;10.00;99.90;;;;;;5456155;26;20013;-90
2024/04/22 12:19:48;;;;;;;2.58;2.20;;;10.00;99.90;;;;;;5461955;26;20010;-90
2024/04/22 12:22:13;;;;;;;2.25;2.05;;;10.10;99.90;;;;;;5462252;26;20038;-89
2024/04/22 12:24:39;;;;;;;2.67;1.98;;;10.20;99.90;;;;;;5461737;26;20003;-89
2024/04/22 12:27:05;;;;;;;3.45;2.10;;;10.20;99.90;;;;;;5460001;26;20048;-89
2024/04/22 12:29:30;;;;;;;3.88;2.20;;;10.30;99.90;;;;;;5458860;26;20013;-90
2024/04/22 12:31:56;;;;;;;4.82;2.17;;;10.30;99.90;;;;;;5458586;26;20029;-90
2024/04/22 12:34:21;;;;;;;3.42;2.53;;;10.40;99.90;;;;;;5458861;26;20007;-89
2024/04/22 12:36:47;;;;;;;3.45;2.47;;;10.40;99.90;;;;;;5456946;26;20384;-89
2024/04/22 12:39:13;;;;;;;3.97;2.30;;;10.50;99.90;;;;;;5454455;26;20021;-90
2024/04/22 12:41:38;;;;;;;2.38;1.98;;;10.50;99.90;;;;;;5455322;26;20002;-88
2024/04/22 12:44:04;;;;;;;2.55;2.28;;;10.50;99.90;;;;;;5455530;26;20010;-89
2024/04/22 12:46:40;;;;;;;4.22;1.98;;;10.50;99.90;;;;;;5454503;26;19994;-89
2024/04/22 12:51:51;;;;;;;5.10;2.08;;;10.40;99.90;;;;;;5455039;26;20006;-89
2024/04/22 12:54:16;;;;;;;3.47;1.85;;;10.40;99.90;;;;;;5454716;26;19999;-88
2024/04/22 12:56:42;;;;;;;3.08;2.15;;;10.70;99.90;;;;;;5455116;26;19999;-89
2024/04/22 12:59:07;;;;;;;4.10;1.55;;;10.40;99.90;;;;;;5454552;26;20075;-88